Terminal Aerodrome Forecast
Issued by NWS

Home | Current Version | Previous Version | Text Only | Print | Product List | Glossary On
Versions: 1 2 3 4 5 6 7 8 9 10 11 12 13 14 15 16 17 18 19 20 21 22 23 24 25
339
FTUS46 KEKA 201722
TAFCEC
TAF
KCEC 201722Z 2018/2118 15018G23KT P6SM -SHRA FEW025 OVC060
     FM211200 20020G33KT 6SM -SHRA SCT025 OVC040=

USA.gov is the U.S. government's official web portal to all federal, state and local government web resources and services.